Airfield :
LOGIN :

Register | Disclaimer

   EN    FR    IT 

 










Legend :    VFR   Marginal VFR   IFR   Intensive IFR   Very Intensive IFR
Visi :
Ceiling :
>= 8 km
>= 3000ft
5 to 8 km
1000 to 3000 ft
1500m to 5 km
500 to 1000 ft
800 to 1500m
200 to 500 ft
< 800m
< 200 ft
Symbols :   Thunderstorms  Fog  Heavy snow  Heavy precipitations  Wind > 20 kt
SIGMETs :     Misc.  Thunderstorms  Icing  Turbulence  Mountain Waves  Volcanic Ashes






- Airport Elevation : 6 ft
- IATA code : PSA


LIRP - Galileo Galilei Pisa

CURRENT METAR :
  • 281615Z 29009KT 9999 SCT080 22/10 Q1021 NOSIG

EXPIRED METARs :
  • 281545Z 28009KT 9999 SCT080 22/08 Q1022 NOSIG
  • 281515Z 30008KT 9999 FEW060 22/08 Q1022 NOSIG
  • 281445Z 28010KT 9999 FEW060 23/07 Q1022 NOSIG
  • 281415Z 28009KT 9999 FEW060 23/07 Q1022 NOSIG
  • 281345Z 28010KT 9999 FEW070 23/08 Q1023 NOSIG
  • 281315Z 27010KT 9999 FEW070 23/08 Q1023 NOSIG

TAF TAF LIRP
Valid from the 28 at 12:00 until the 29 at 12:00 UTC


281100Z 2812/2912 27010KT 9999 SCT070
BECMG 2901/2903 08010G20KT 9999 FEW030 BKN080
TEMPO 2903/2907 RA



MET'MAP, your aeronautical weather chart ! - Copyright ORBIFLY December 2007 - Disclaimer

ORBIFLY MET'MAP TEAM :

Programming & Development : Alexandra Zaïnal
Concept & original design : Baudouin d'Aumeries
Assistance for programming : Marc-Olivier Méhu
Technical & hardware support : Manuel Goepfert

Contact : metmap@orbifly.com




SOURCES & CREDITS :

   NOAA